createdAt,value
2022-12-03T00:00:44.921Z,-12.93
2022-12-03T00:03:13.329Z,-12.96
2022-12-03T00:05:48.538Z,-13.03
2022-12-03T00:08:18.888Z,-13.00
2022-12-03T00:10:47.180Z,-13.08
2022-12-03T00:13:17.016Z,-13.10
2022-12-03T00:15:45.296Z,-13.17
2022-12-03T00:18:13.671Z,-13.02
2022-12-03T00:20:41.869Z,-13.17
2022-12-03T00:23:10.072Z,-13.22
2022-12-03T00:25:39.799Z,-13.25
2022-12-03T00:28:08.120Z,-13.28
2022-12-03T00:30:36.340Z,-13.20
2022-12-03T00:33:04.795Z,-13.21
2022-12-03T00:35:33.081Z,-13.29
2022-12-03T00:38:01.532Z,-13.20
2022-12-03T00:40:29.902Z,-13.40
2022-12-03T00:42:59.460Z,-13.25
2022-12-03T00:45:27.764Z,-13.23
2022-12-03T00:47:56.101Z,-13.20
2022-12-03T00:50:24.351Z,-13.28
2022-12-03T00:52:52.644Z,-13.33
2022-12-03T00:55:20.883Z,-13.40
2022-12-03T00:57:49.009Z,-13.36
2022-12-03T01:00:19.080Z,-13.33
2022-12-03T01:02:47.428Z,-13.30
2022-12-03T01:05:15.692Z,-13.25
2022-12-03T01:07:43.992Z,-13.16
2022-12-03T01:10:13.921Z,-13.09
2022-12-03T01:12:42.293Z,-13.18
2022-12-03T01:15:11.544Z,-13.43
2022-12-03T01:17:41.250Z,-13.49
2022-12-03T01:20:10.857Z,-13.48
2022-12-03T01:22:39.193Z,-13.30
2022-12-03T01:25:08.130Z,-13.46
2022-12-03T01:27:36.294Z,-13.34
2022-12-03T01:30:05.626Z,-13.27
2022-12-03T01:32:33.203Z,-13.42
2022-12-03T01:35:02.916Z,-13.43
2022-12-03T01:37:32.385Z,-13.28
2022-12-03T01:40:00.559Z,-13.32
2022-12-03T01:42:31.632Z,-13.33
2022-12-03T01:45:00.930Z,-13.54
2022-12-03T01:47:33.913Z,-13.55
2022-12-03T01:50:06.374Z,-13.54
2022-12-03T01:52:37.889Z,-13.49
2022-12-03T01:55:08.447Z,-13.46
2022-12-03T01:57:42.389Z,-13.44
2022-12-03T02:00:15.326Z,-13.40
2022-12-03T02:02:43.604Z,-13.44
2022-12-03T02:05:20.015Z,-13.47
2022-12-03T02:07:48.329Z,-13.38
2022-12-03T02:10:18.244Z,-13.39
2022-12-03T02:12:49.665Z,-13.29
2022-12-03T02:15:17.879Z,-13.27
2022-12-03T02:17:46.151Z,-13.29
2022-12-03T02:20:14.886Z,-13.44
2022-12-03T02:22:49.643Z,-13.36
2022-12-03T02:25:21.139Z,-13.28
2022-12-03T02:27:50.180Z,-13.36
2022-12-03T02:30:20.541Z,-13.38
2022-12-03T02:32:49.223Z,-13.36
2022-12-03T02:35:18.307Z,-13.34
2022-12-03T02:37:47.936Z,-13.23
2022-12-03T02:40:21.994Z,-13.30
2022-12-03T02:42:51.288Z,-13.32
2022-12-03T02:45:21.813Z,-13.28
2022-12-03T02:47:52.396Z,-13.30
2022-12-03T02:50:23.820Z,-13.25
2022-12-03T02:52:52.744Z,-13.28
2022-12-03T02:55:22.829Z,-13.28
2022-12-03T02:57:51.866Z,-13.16
2022-12-03T03:00:21.068Z,-13.03
2022-12-03T03:02:49.787Z,-13.11
2022-12-03T03:05:20.876Z,-13.22
2022-12-03T03:07:49.491Z,-13.29
2022-12-03T03:10:20.356Z,-13.28
2022-12-03T03:12:52.971Z,-13.28
2022-12-03T03:15:21.721Z,-13.33
2022-12-03T03:17:49.968Z,-13.30
2022-12-03T03:20:18.634Z,-13.37
2022-12-03T03:22:46.994Z,-13.32
2022-12-03T03:25:17.640Z,-13.25
2022-12-03T03:27:46.497Z,-13.20
2022-12-03T03:30:16.488Z,-13.24
2022-12-03T03:32:44.766Z,-13.24
2022-12-03T03:35:14.900Z,-13.19
2022-12-03T03:37:43.541Z,-13.20
2022-12-03T03:40:12.430Z,-13.31
2022-12-03T03:42:41.150Z,-13.29
2022-12-03T03:45:11.024Z,-13.24
2022-12-03T03:47:41.591Z,-13.19
2022-12-03T03:50:11.908Z,-13.32
2022-12-03T03:52:41.465Z,-13.29
2022-12-03T03:55:11.133Z,-13.31
2022-12-03T03:57:39.656Z,-13.28
2022-12-03T04:00:09.671Z,-13.26
2022-12-03T04:02:38.644Z,-13.21
2022-12-03T04:05:11.596Z,-13.16
2022-12-03T04:07:39.827Z,-13.13
2022-12-03T04:10:38.024Z,-13.27
2022-12-03T04:13:05.810Z,-13.26
2022-12-03T04:15:34.552Z,-13.25
2022-12-03T04:18:21.010Z,-13.22
2022-12-03T04:20:50.531Z,-13.16
2022-12-03T04:23:17.714Z,-13.09
2022-12-03T04:25:59.779Z,-13.09
2022-12-03T04:28:45.222Z,-13.02
2022-12-03T04:31:30.781Z,-13.04
2022-12-03T04:34:18.564Z,-12.85
2022-12-03T04:36:48.463Z,-12.88
2022-12-03T04:39:16.858Z,-12.82
2022-12-03T04:41:45.040Z,-12.78
2022-12-03T04:44:30.507Z,-12.64
2022-12-03T04:46:59.032Z,-12.68
2022-12-03T04:49:27.746Z,-12.72
2022-12-03T04:51:57.520Z,-12.78
2022-12-03T04:54:25.800Z,-12.78
2022-12-03T04:56:54.063Z,-12.64
2022-12-03T04:59:22.351Z,-12.54
2022-12-03T05:01:50.570Z,-12.55
2022-12-03T05:04:18.825Z,-12.65
2022-12-03T05:06:47.278Z,-12.55
2022-12-03T05:09:17.043Z,-12.43
2022-12-03T05:11:45.217Z,-12.49
2022-12-03T05:14:13.776Z,-12.42
2022-12-03T05:16:42.025Z,-12.33
2022-12-03T05:19:10.757Z,-12.28
2022-12-03T05:21:38.605Z,-12.30
2022-12-03T05:24:07.497Z,-12.20
2022-12-03T05:26:37.113Z,-12.15
2022-12-03T05:29:05.840Z,-12.04
2022-12-03T05:31:34.035Z,-12.03
2022-12-03T05:34:02.185Z,-12.02
2022-12-03T05:36:30.444Z,-11.88
2022-12-03T05:38:58.630Z,-11.88
2022-12-03T05:41:44.179Z,-11.82
2022-12-03T05:44:18.836Z,-11.67
2022-12-03T05:46:48.701Z,-11.53
2022-12-03T05:49:17.398Z,-11.39
2022-12-03T05:51:46.185Z,-11.44
2022-12-03T05:54:14.540Z,-11.32
2022-12-03T05:56:43.010Z,-11.20
2022-12-03T05:59:11.296Z,-11.04
2022-12-03T06:01:41.066Z,-10.95
2022-12-03T06:04:09.284Z,-10.95
2022-12-03T06:06:37.534Z,-10.88
2022-12-03T06:09:06.078Z,-10.77
2022-12-03T06:11:37.076Z,-10.67
2022-12-03T06:14:05.292Z,-10.67
2022-12-03T06:16:33.679Z,-10.57
2022-12-03T06:19:03.493Z,-10.49
2022-12-03T06:21:31.941Z,-10.32
2022-12-03T06:24:01.480Z,-10.31
2022-12-03T06:26:30.220Z,-10.19
2022-12-03T06:28:58.496Z,-10.22
2022-12-03T06:31:26.804Z,-10.35
2022-12-03T06:33:55.027Z,-10.42
2022-12-03T06:36:26.220Z,-10.49
2022-12-03T06:38:54.516Z,-10.48
2022-12-03T06:41:22.707Z,-10.43
2022-12-03T06:43:50.933Z,-10.53
2022-12-03T06:46:19.340Z,-10.44
2022-12-03T06:48:47.512Z,-10.41
2022-12-03T06:51:15.762Z,-10.36
2022-12-03T06:53:45.552Z,-10.35
2022-12-03T06:56:14.320Z,-10.25
2022-12-03T06:58:42.522Z,-10.24
2022-12-03T07:01:10.890Z,-10.11
2022-12-03T07:03:39.124Z,-10.20
2022-12-03T07:06:07.773Z,-10.23
2022-12-03T07:08:36.784Z,-10.11
2022-12-03T07:11:26.626Z,-10.13
2022-12-03T07:13:56.232Z,-10.12
2022-12-03T07:16:26.273Z,-10.08
2022-12-03T07:18:54.848Z,-9.93
2022-12-03T07:21:23.066Z,-9.85
2022-12-03T07:23:51.789Z,-9.83
2022-12-03T07:26:22.160Z,-9.74
2022-12-03T07:28:50.427Z,-9.76
2022-12-03T07:31:18.799Z,-9.56
2022-12-03T07:33:47.116Z,-9.55
2022-12-03T07:36:15.319Z,-9.53
2022-12-03T07:38:43.583Z,-9.34
2022-12-03T07:41:11.879Z,-9.07
2022-12-03T07:43:41.513Z,-9.11
2022-12-03T07:46:09.777Z,-9.08
2022-12-03T07:48:38.119Z,-9.09
2022-12-03T07:51:06.506Z,-9.05
2022-12-03T07:53:36.291Z,-9.01
2022-12-03T07:56:04.982Z,-8.96
2022-12-03T07:58:33.500Z,-8.91
2022-12-03T08:01:03.295Z,-8.77
2022-12-03T08:03:31.812Z,-8.74
2022-12-03T08:06:00.169Z,-8.69
2022-12-03T08:08:28.486Z,-8.43
2022-12-03T08:10:56.773Z,-7.89
2022-12-03T08:13:25.108Z,-7.77
2022-12-03T08:15:53.549Z,-7.69
2022-12-03T08:18:23.616Z,-7.95
2022-12-03T08:20:52.781Z,-8.39
2022-12-03T08:23:22.143Z,-8.34
2022-12-03T08:25:51.631Z,-8.41
2022-12-03T08:28:21.691Z,-8.33
2022-12-03T08:31:01.097Z,-8.08
2022-12-03T08:33:33.769Z,-8.31
2022-12-03T08:36:03.496Z,-8.30
2022-12-03T08:38:31.811Z,-8.24
2022-12-03T08:41:00.221Z,-8.31
2022-12-03T08:43:29.835Z,-8.28
2022-12-03T08:45:58.834Z,-8.34
2022-12-03T08:48:32.694Z,-8.27
2022-12-03T08:51:03.310Z,-8.37
2022-12-03T08:53:36.407Z,-8.11
2022-12-03T08:56:07.145Z,-8.08
2022-12-03T08:58:39.383Z,-7.88
2022-12-03T09:01:34.441Z,-8.03
2022-12-03T09:04:24.500Z,-7.97
2022-12-03T09:06:53.404Z,-7.80
2022-12-03T09:09:22.081Z,-7.70
2022-12-03T09:11:51.232Z,-7.75
2022-12-03T09:14:21.364Z,-7.66
2022-12-03T09:16:50.383Z,-7.69
2022-12-03T09:19:18.763Z,-7.73
2022-12-03T09:21:48.356Z,-7.72
2022-12-03T09:24:16.501Z,-7.55
2022-12-03T09:26:44.865Z,-7.51
2022-12-03T09:29:13.566Z,-7.41
2022-12-03T09:31:42.675Z,-7.55
2022-12-03T09:34:11.037Z,-7.60
2022-12-03T09:36:39.362Z,-7.65
2022-12-03T09:39:09.034Z,-7.39
2022-12-03T09:41:37.548Z,-7.59
2022-12-03T09:44:08.545Z,-7.39
2022-12-03T09:46:40.666Z,-7.27
2022-12-03T09:49:15.318Z,-7.19
2022-12-03T09:51:45.603Z,-6.97
2022-12-03T09:54:21.092Z,-6.98
2022-12-03T09:56:49.437Z,-7.10
2022-12-03T09:59:18.892Z,-7.07
2022-12-03T10:01:47.321Z,-6.90
2022-12-03T10:04:15.732Z,-6.86
2022-12-03T10:06:46.296Z,-6.81
2022-12-03T10:09:21.061Z,-6.98
2022-12-03T10:11:49.259Z,-7.05
2022-12-03T10:14:18.936Z,-6.91
2022-12-03T10:16:47.759Z,-7.01
2022-12-03T10:19:20.821Z,-6.95
2022-12-03T10:21:49.125Z,-6.90
2022-12-03T10:24:27.011Z,-6.90
2022-12-03T10:26:57.409Z,-6.82
2022-12-03T10:29:32.962Z,-6.81
2022-12-03T10:32:04.189Z,-6.84
2022-12-03T10:34:34.383Z,-6.89
2022-12-03T10:37:17.324Z,-6.97
2022-12-03T10:40:01.155Z,-6.98
2022-12-03T10:42:31.013Z,-6.93
2022-12-03T10:45:19.595Z,-6.80
2022-12-03T10:48:10.788Z,-6.76
2022-12-03T10:50:39.589Z,-6.90
2022-12-03T10:53:07.862Z,-7.10
2022-12-03T10:55:40.245Z,-6.98
2022-12-03T10:58:12.136Z,-6.93
2022-12-03T11:00:40.587Z,-6.91
2022-12-03T11:03:18.340Z,-6.85
2022-12-03T11:05:46.711Z,-6.77
2022-12-03T11:08:22.446Z,-6.89
2022-12-03T11:11:15.541Z,-6.78
2022-12-03T11:13:52.453Z,-6.77
2022-12-03T11:17:09.134Z,-6.76
2022-12-03T11:19:50.403Z,-6.71
2022-12-03T11:22:30.736Z,-6.69
2022-12-03T11:25:51.722Z,-6.65
2022-12-03T11:28:53.379Z,-6.63
2022-12-03T11:31:39.422Z,-6.58
2022-12-03T11:34:51.197Z,-6.58
2022-12-03T11:37:23.749Z,-6.68
2022-12-03T11:40:28.638Z,-6.58
2022-12-03T11:42:56.881Z,-6.63
2022-12-03T11:45:33.199Z,-6.70
2022-12-03T11:48:22.729Z,-6.69
2022-12-03T11:50:52.720Z,-6.74
2022-12-03T11:53:22.505Z,-6.63
2022-12-03T11:56:06.518Z,-6.54
2022-12-03T11:58:35.485Z,-6.57
2022-12-03T12:01:07.025Z,-6.64
2022-12-03T12:03:38.015Z,-6.59
2022-12-03T12:06:08.940Z,-6.57
2022-12-03T12:08:39.172Z,-6.65
2022-12-03T12:11:18.551Z,-6.71
2022-12-03T12:13:56.004Z,-6.67
2022-12-03T12:16:51.131Z,-6.54
2022-12-03T12:19:36.011Z,-6.60
2022-12-03T12:22:29.188Z,-6.61
2022-12-03T12:24:57.873Z,-6.70
2022-12-03T12:27:34.250Z,-6.66
2022-12-03T12:30:03.858Z,-6.56
2022-12-03T12:32:36.274Z,-6.52
2022-12-03T12:35:15.769Z,-6.57
2022-12-03T12:37:58.107Z,-6.56
2022-12-03T12:40:28.912Z,-6.51
2022-12-03T12:42:58.562Z,-6.46
2022-12-03T12:45:28.972Z,-6.51
2022-12-03T12:48:03.508Z,-6.47
2022-12-03T12:50:33.092Z,-6.40
2022-12-03T12:53:04.592Z,-6.41
2022-12-03T12:55:32.897Z,-6.45
2022-12-03T12:58:04.316Z,-6.43
2022-12-03T13:00:32.607Z,-6.39
2022-12-03T13:03:03.397Z,-6.48
2022-12-03T13:05:36.985Z,-6.46
2022-12-03T13:08:20.495Z,-6.55
2022-12-03T13:10:48.688Z,-6.47
2022-12-03T13:13:21.708Z,-6.40
2022-12-03T13:15:53.490Z,-6.41
2022-12-03T13:18:26.713Z,-6.34
2022-12-03T13:20:55.899Z,-6.38
2022-12-03T13:23:30.653Z,-6.36
2022-12-03T13:26:10.296Z,-6.48
2022-12-03T13:28:49.166Z,-6.45
2022-12-03T13:31:24.967Z,-6.38
2022-12-03T13:33:56.030Z,-6.35
2022-12-03T13:36:31.476Z,-6.34
2022-12-03T13:39:00.536Z,-6.34
2022-12-03T13:41:56.805Z,-6.38
2022-12-03T13:44:34.658Z,-6.50
2022-12-03T13:47:14.673Z,-6.48
2022-12-03T13:49:47.859Z,-6.46
2022-12-03T13:52:17.584Z,-6.39
2022-12-03T13:54:45.879Z,-6.36
2022-12-03T13:57:14.110Z,-6.37
2022-12-03T13:59:42.452Z,-6.39
2022-12-03T14:02:12.797Z,-6.30
2022-12-03T14:04:41.828Z,-6.25
2022-12-03T14:07:11.956Z,-6.17
2022-12-03T14:09:40.610Z,-6.19
2022-12-03T14:12:27.253Z,-6.22
2022-12-03T14:14:55.746Z,-6.30
2022-12-03T14:17:24.279Z,-6.23
2022-12-03T14:19:52.936Z,-6.25
2022-12-03T14:22:25.464Z,-6.33
2022-12-03T14:24:54.240Z,-6.28
2022-12-03T14:27:23.052Z,-6.30
2022-12-03T14:29:51.916Z,-6.37
2022-12-03T14:32:20.768Z,-6.34
2022-12-03T14:34:48.947Z,-6.30
2022-12-03T14:37:17.834Z,-6.36
2022-12-03T14:39:47.940Z,-6.42
2022-12-03T14:42:16.895Z,-6.42
2022-12-03T14:44:46.579Z,-6.35
2022-12-03T14:47:15.509Z,-6.34
2022-12-03T14:49:44.004Z,-6.35
2022-12-03T14:52:12.938Z,-6.38
2022-12-03T14:54:42.869Z,-6.47
2022-12-03T14:57:13.939Z,-6.47
2022-12-03T14:59:42.683Z,-6.47
2022-12-03T15:02:11.756Z,-6.50
2022-12-03T15:04:40.151Z,-6.49
2022-12-03T15:07:09.096Z,-6.49
2022-12-03T15:09:37.507Z,-6.49
2022-12-03T15:12:06.681Z,-6.53
2022-12-03T15:14:36.462Z,-6.48
2022-12-03T15:17:04.854Z,-6.60
2022-12-03T15:19:33.261Z,-6.60
2022-12-03T15:22:01.671Z,-6.70
2022-12-03T15:24:33.950Z,-6.58
2022-12-03T15:27:07.498Z,-6.59
2022-12-03T15:29:42.255Z,-6.61
2022-12-03T15:32:11.186Z,-6.58
2022-12-03T15:34:39.451Z,-6.71
2022-12-03T15:37:09.311Z,-6.75
2022-12-03T15:39:38.936Z,-6.72
2022-12-03T15:42:11.539Z,-6.74
2022-12-03T15:44:45.340Z,-6.74
2022-12-03T15:47:21.465Z,-6.76
2022-12-03T15:49:54.838Z,-6.77
2022-12-03T15:52:28.429Z,-6.80
2022-12-03T15:55:00.787Z,-6.76
2022-12-03T15:57:32.176Z,-6.99
2022-12-03T16:00:04.257Z,-7.00
2022-12-03T16:02:36.656Z,-7.09
2022-12-03T16:05:09.012Z,-7.19
2022-12-03T16:07:38.417Z,-7.18
2022-12-03T16:10:08.977Z,-7.08
2022-12-03T16:12:37.900Z,-7.16
2022-12-03T16:15:09.116Z,-7.22
2022-12-03T16:17:37.494Z,-7.19
2022-12-03T16:20:06.893Z,-7.23
2022-12-03T16:22:35.229Z,-7.21
2022-12-03T16:25:05.285Z,-7.26
2022-12-03T16:27:33.505Z,-7.19
2022-12-03T16:30:02.116Z,-7.31
2022-12-03T16:32:33.107Z,-7.34
2022-12-03T16:35:01.799Z,-7.30
2022-12-03T16:37:30.291Z,-7.30
2022-12-03T16:39:58.574Z,-7.30
2022-12-03T16:42:27.668Z,-7.28
2022-12-03T16:45:19.465Z,-7.26
2022-12-03T16:47:49.070Z,-7.22
2022-12-03T16:50:24.382Z,-7.26
2022-12-03T16:52:55.951Z,-7.27
2022-12-03T16:55:24.124Z,-7.30
2022-12-03T16:57:54.168Z,-7.31
2022-12-03T17:00:23.054Z,-7.27
2022-12-03T17:02:52.914Z,-7.29
2022-12-03T17:05:21.236Z,-7.28
2022-12-03T17:07:49.549Z,-7.33
2022-12-03T17:10:18.003Z,-7.29
2022-12-03T17:13:08.671Z,-7.34
2022-12-03T17:15:36.806Z,-7.28
2022-12-03T17:18:07.434Z,-7.38
2022-12-03T17:20:35.901Z,-7.43
2022-12-03T17:23:04.707Z,-7.49
2022-12-03T17:25:33.010Z,-7.48
2022-12-03T17:28:01.249Z,-7.52
2022-12-03T17:30:29.624Z,-7.51
2022-12-03T17:32:57.989Z,-7.48
2022-12-03T17:35:28.745Z,-7.49
2022-12-03T17:37:57.209Z,-7.60
2022-12-03T17:40:25.472Z,-7.64
2022-12-03T17:42:54.242Z,-7.64
2022-12-03T17:45:22.747Z,-7.64
2022-12-03T17:47:51.704Z,-7.61
2022-12-03T17:50:20.274Z,-7.65
2022-12-03T17:52:50.110Z,-7.68
2022-12-03T17:55:29.734Z,-7.71
2022-12-03T17:58:05.056Z,-7.73
2022-12-03T18:00:33.612Z,-7.77
2022-12-03T18:03:01.911Z,-7.86
2022-12-03T18:05:30.280Z,-7.89
2022-12-03T18:08:00.340Z,-7.88
2022-12-03T18:10:28.825Z,-7.88
2022-12-03T18:13:01.680Z,-7.82
2022-12-03T18:15:31.159Z,-7.73
2022-12-03T18:18:01.706Z,-7.79
2022-12-03T18:20:30.009Z,-7.75
2022-12-03T18:23:00.588Z,-7.88
2022-12-03T18:25:29.714Z,-7.74
2022-12-03T18:27:58.546Z,-7.67
2022-12-03T18:30:26.894Z,-7.68
2022-12-03T18:32:55.415Z,-7.74
2022-12-03T18:35:23.657Z,-7.76
2022-12-03T18:37:52.511Z,-7.78
2022-12-03T18:40:24.404Z,-7.87
2022-12-03T18:42:52.620Z,-7.78
2022-12-03T18:45:21.207Z,-7.71
2022-12-03T18:47:49.741Z,-7.78
2022-12-03T18:50:18.825Z,-7.70
2022-12-03T18:52:47.316Z,-7.74
2022-12-03T18:55:19.867Z,-7.73
2022-12-03T18:57:49.599Z,-7.69
2022-12-03T19:00:18.651Z,-7.65
2022-12-03T19:03:03.058Z,-7.65
2022-12-03T19:05:32.743Z,-7.66
2022-12-03T19:08:01.239Z,-7.71
2022-12-03T19:10:29.864Z,-7.62
2022-12-03T19:12:59.615Z,-7.62
2022-12-03T19:15:28.136Z,-7.69
2022-12-03T19:17:56.489Z,-7.76
2022-12-03T19:20:25.377Z,-7.76
2022-12-03T19:22:53.638Z,-7.75
2022-12-03T19:25:21.908Z,-7.86
2022-12-03T19:27:50.946Z,-7.89
2022-12-03T19:30:21.464Z,-7.72
2022-12-03T19:32:51.738Z,-7.78
2022-12-03T19:35:21.529Z,-7.81
2022-12-03T19:37:50.338Z,-7.80
2022-12-03T19:40:19.043Z,-7.85
2022-12-03T19:42:47.410Z,-7.85
2022-12-03T19:45:15.726Z,-7.90
2022-12-03T19:47:45.797Z,-7.86
2022-12-03T19:50:22.328Z,-7.87
2022-12-03T19:52:52.008Z,-7.92
2022-12-03T19:55:20.785Z,-7.87
2022-12-03T19:57:49.080Z,-7.92
2022-12-03T20:00:18.269Z,-8.00
2022-12-03T20:02:49.773Z,-7.92
2022-12-03T20:05:18.163Z,-7.91
2022-12-03T20:07:46.435Z,-7.99
2022-12-03T20:10:14.794Z,-7.91
2022-12-03T20:12:43.016Z,-7.91
2022-12-03T20:15:12.585Z,-8.03
2022-12-03T20:17:41.014Z,-7.95
2022-12-03T20:20:11.816Z,-8.07
2022-12-03T20:22:40.063Z,-8.03
2022-12-03T20:25:09.209Z,-7.94
2022-12-03T20:27:37.885Z,-7.78
2022-12-03T20:30:07.419Z,-7.98
2022-12-03T20:32:40.539Z,-8.14
2022-12-03T20:35:13.326Z,-8.16
2022-12-03T20:37:41.621Z,-8.10
2022-12-03T20:40:10.766Z,-8.11
2022-12-03T20:42:38.963Z,-8.18
2022-12-03T20:45:08.517Z,-8.13
2022-12-03T20:47:36.802Z,-8.16
2022-12-03T20:50:05.289Z,-8.19
2022-12-03T20:52:35.585Z,-8.22
2022-12-03T20:55:03.745Z,-8.24
2022-12-03T20:57:32.694Z,-8.30
2022-12-03T21:00:01.054Z,-8.35
2022-12-03T21:02:29.360Z,-8.51
2022-12-03T21:04:57.648Z,-8.58
2022-12-03T21:07:25.958Z,-8.61
2022-12-03T21:09:55.856Z,-8.60
2022-12-03T21:12:24.283Z,-8.66
2022-12-03T21:14:52.603Z,-8.63
2022-12-03T21:17:20.989Z,-8.67
2022-12-03T21:19:49.374Z,-8.75
2022-12-03T21:22:17.708Z,-8.74
2022-12-03T21:24:46.488Z,-8.79
2022-12-03T21:27:21.351Z,-8.81
2022-12-03T21:29:51.021Z,-8.77
2022-12-03T21:32:19.334Z,-8.86
2022-12-03T21:34:47.543Z,-8.90
2022-12-03T21:37:15.962Z,-8.99
2022-12-03T21:39:44.166Z,-8.97
2022-12-03T21:42:18.910Z,-8.95
2022-12-03T21:45:02.761Z,-8.94
2022-12-03T21:47:37.314Z,-9.10
2022-12-03T21:50:08.051Z,-9.10
2022-12-03T21:52:36.658Z,-9.09
2022-12-03T21:55:05.116Z,-9.15
2022-12-03T21:57:33.720Z,-9.22
2022-12-03T22:00:04.492Z,-9.21
2022-12-03T22:02:33.891Z,-9.23
2022-12-03T22:05:02.106Z,-9.23
2022-12-03T22:07:34.165Z,-9.37
2022-12-03T22:10:02.563Z,-9.39
2022-12-03T22:12:32.357Z,-9.44
2022-12-03T22:15:00.714Z,-9.39
2022-12-03T22:17:30.311Z,-9.36
2022-12-03T22:19:58.565Z,-9.45
2022-12-03T22:22:26.944Z,-9.50
2022-12-03T22:24:55.085Z,-9.53
2022-12-03T22:27:23.284Z,-9.55
2022-12-03T22:29:51.711Z,-9.55
2022-12-03T22:32:20.631Z,-9.55
2022-12-03T22:34:50.289Z,-9.61
2022-12-03T22:37:18.726Z,-9.76
2022-12-03T22:39:47.407Z,-9.66
2022-12-03T22:42:15.705Z,-9.64
2022-12-03T22:44:44.065Z,-9.65
2022-12-03T22:47:12.332Z,-9.59
2022-12-03T22:49:40.760Z,-9.74
2022-12-03T22:52:10.568Z,-9.70
2022-12-03T22:54:38.760Z,-9.74
2022-12-03T22:57:07.056Z,-9.77
2022-12-03T22:59:37.291Z,-9.78
2022-12-03T23:02:05.600Z,-9.82
2022-12-03T23:04:34.380Z,-9.84
2022-12-03T23:07:02.696Z,-9.87
2022-12-03T23:09:32.364Z,-9.93
2022-12-03T23:12:00.598Z,-9.94
2022-12-03T23:14:28.984Z,-10.01
2022-12-03T23:16:57.231Z,-9.98
2022-12-03T23:19:25.370Z,-9.92
2022-12-03T23:21:54.061Z,-9.91
2022-12-03T23:24:22.301Z,-9.95
2022-12-03T23:26:51.853Z,-9.95
2022-12-03T23:29:20.164Z,-10.01
2022-12-03T23:31:48.537Z,-10.00
2022-12-03T23:34:16.984Z,-9.97
2022-12-03T23:36:45.977Z,-9.96
2022-12-03T23:39:14.242Z,-10.04
2022-12-03T23:41:42.385Z,-10.06
2022-12-03T23:44:12.217Z,-10.15
2022-12-03T23:46:41.839Z,-10.16
2022-12-03T23:49:10.072Z,-10.15
2022-12-03T23:51:38.332Z,-10.22
2022-12-03T23:54:06.661Z,-10.26
2022-12-03T23:56:34.868Z,-10.24
2022-12-03T23:59:03.260Z,-10.27
